KCVG

Cincinnati North Kentucky

Airport
ICAO code
KCVG
IATA Code
CVG
Summary
ICAO Region
NAM
ICAO Territory
Location

Hebron, Kentucky

Serving
Cincinnati
Elevation
896 ft
Coordinates
39° 3' 12" N , 84° 39' 47" W
KCC
Airport BS
Bird Strike
Metar
KCVG 270512Z 20009KT 5SM RA BR SCT080 BKN100 OVC120 19/18 A2965 RMK AO2 LTG DSNT E-SW RAB06 P0006 T01940178 $

Airport serving Cincinnati tri-state area located in Boone County, Kentucky, USA.

Airport map

Aerial View

SKYbrary Partners:

Safety knowledge contributed by: